createdAt,value
2023-02-26T00:01:22.903Z,-4.13
2023-02-26T00:03:54.812Z,-4.11
2023-02-26T00:06:21.975Z,-4.18
2023-02-26T00:08:48.884Z,-4.17
2023-02-26T00:11:15.677Z,-4.25
2023-02-26T00:13:44.502Z,-4.18
2023-02-26T00:18:53.218Z,-4.21
2023-02-26T00:21:22.606Z,-4.20
2023-02-26T00:23:49.580Z,-4.16
2023-02-26T00:26:16.084Z,-4.19
2023-02-26T00:28:43.035Z,-4.17
2023-02-26T00:31:10.361Z,-4.21
2023-02-26T00:33:37.172Z,-4.29
2023-02-26T00:36:20.458Z,-4.27
2023-02-26T00:39:00.014Z,-4.24
2023-02-26T00:41:26.909Z,-4.21
2023-02-26T00:43:53.674Z,-4.20
2023-02-26T00:46:35.893Z,-4.14
2023-02-26T00:49:50.368Z,-4.05
2023-02-26T00:52:35.240Z,-4.13
2023-02-26T00:55:01.638Z,-4.14
2023-02-26T00:57:28.070Z,-4.16
2023-02-26T00:59:54.573Z,-4.17
2023-02-26T01:02:21.145Z,-4.06
2023-02-26T01:04:48.449Z,-4.10
2023-02-26T01:07:16.081Z,-4.04
2023-02-26T01:09:42.692Z,-4.03
2023-02-26T01:12:12.932Z,-4.03
2023-02-26T01:14:40.389Z,-4.05
2023-02-26T01:17:19.338Z,-4.10
2023-02-26T01:19:45.911Z,-4.03
2023-02-26T01:22:21.445Z,-4.00
2023-02-26T01:24:52.622Z,-3.91
2023-02-26T01:27:19.206Z,-3.95
2023-02-26T01:29:46.146Z,-3.94
2023-02-26T01:32:15.526Z,-3.94
2023-02-26T01:34:51.313Z,-3.82
2023-02-26T01:37:31.459Z,-3.83
2023-02-26T01:40:33.333Z,-3.92
2023-02-26T01:43:04.920Z,-3.94
2023-02-26T01:45:39.197Z,-3.92
2023-02-26T01:48:11.660Z,-3.93
2023-02-26T01:50:39.496Z,-3.94
2023-02-26T01:53:26.774Z,-3.93
2023-02-26T01:56:04.781Z,-3.96
2023-02-26T01:58:34.465Z,-3.89
2023-02-26T02:01:01.997Z,-3.90
2023-02-26T02:03:31.824Z,-3.87
2023-02-26T02:09:47.751Z,-3.83
2023-02-26T02:12:35.885Z,-3.89
2023-02-26T02:15:17.179Z,-3.89
2023-02-26T02:17:52.470Z,-3.91
2023-02-26T02:20:27.911Z,-3.90
2023-02-26T02:23:00.122Z,-3.83
2023-02-26T02:25:35.712Z,-3.87
2023-02-26T02:28:28.550Z,-3.88
2023-02-26T02:31:19.858Z,-3.81
2023-02-26T02:34:01.621Z,-3.81
2023-02-26T02:36:54.012Z,-3.83
2023-02-26T02:39:28.016Z,-3.78
2023-02-26T02:42:04.774Z,-3.79
2023-02-26T02:44:36.370Z,-3.81
2023-02-26T02:47:06.196Z,-3.77
2023-02-26T02:49:48.084Z,-3.85
2023-02-26T02:52:22.714Z,-3.79
2023-02-26T02:55:18.640Z,-3.77
2023-02-26T02:58:01.400Z,-3.75
2023-02-26T03:00:31.387Z,-3.81
2023-02-26T03:03:06.710Z,-3.80
2023-02-26T03:05:33.308Z,-3.84
2023-02-26T03:08:04.987Z,-3.78
2023-02-26T03:10:32.015Z,-3.82
2023-02-26T03:12:58.454Z,-3.83
2023-02-26T03:15:40.107Z,-3.81
2023-02-26T03:18:09.945Z,-3.74
2023-02-26T03:20:46.170Z,-3.83
2023-02-26T03:23:18.233Z,-3.87
2023-02-26T03:25:51.342Z,-3.93
2023-02-26T03:28:30.628Z,-3.90
2023-02-26T03:31:03.601Z,-3.90
2023-02-26T03:33:57.986Z,-3.91
2023-02-26T03:36:39.474Z,-3.84
2023-02-26T03:39:19.549Z,-3.91
2023-02-26T03:42:06.362Z,-3.84
2023-02-26T03:44:37.723Z,-3.85
2023-02-26T03:47:12.749Z,-3.93
2023-02-26T03:50:02.045Z,-3.89
2023-02-26T03:52:31.770Z,-3.91
2023-02-26T03:55:08.676Z,-3.83
2023-02-26T03:57:35.565Z,-3.89
2023-02-26T04:00:02.343Z,-3.89
2023-02-26T04:02:35.132Z,-3.90
2023-02-26T04:05:30.499Z,-3.83
2023-02-26T04:07:57.952Z,-3.80
2023-02-26T04:10:36.481Z,-3.92
2023-02-26T04:13:03.357Z,-3.93
2023-02-26T04:15:30.018Z,-3.88
2023-02-26T04:17:56.532Z,-3.83
2023-02-26T04:20:23.036Z,-3.86
2023-02-26T04:22:49.537Z,-3.83
2023-02-26T04:25:16.290Z,-3.87
2023-02-26T04:27:42.716Z,-3.91
2023-02-26T04:30:09.838Z,-3.84
2023-02-26T04:32:36.356Z,-3.85
2023-02-26T04:35:02.930Z,-3.85
2023-02-26T04:37:29.625Z,-3.87
2023-02-26T04:39:56.059Z,-3.82
2023-02-26T04:42:22.558Z,-3.87
2023-02-26T04:44:49.210Z,-3.85
2023-02-26T04:47:15.727Z,-3.80
2023-02-26T04:49:42.195Z,-3.84
2023-02-26T04:52:08.697Z,-3.81
2023-02-26T04:54:35.323Z,-3.84
2023-02-26T04:57:01.807Z,-3.85
2023-02-26T04:59:28.240Z,-3.86
2023-02-26T05:01:54.744Z,-3.78
2023-02-26T05:04:21.350Z,-3.87
2023-02-26T05:06:47.825Z,-3.88
2023-02-26T05:09:14.430Z,-3.81
2023-02-26T05:11:40.934Z,-3.79
2023-02-26T05:14:07.489Z,-3.79
2023-02-26T05:16:34.037Z,-3.73
2023-02-26T05:19:00.570Z,-3.75
2023-02-26T05:21:27.063Z,-3.70
2023-02-26T05:23:53.609Z,-3.82
2023-02-26T05:26:20.102Z,-3.80
2023-02-26T05:28:46.683Z,-3.73
2023-02-26T05:31:13.817Z,-3.71
2023-02-26T05:33:40.589Z,-3.75
2023-02-26T05:36:07.364Z,-3.80
2023-02-26T05:38:34.392Z,-3.77
2023-02-26T05:41:01.678Z,-3.66
2023-02-26T05:43:28.409Z,-3.73
2023-02-26T05:45:55.711Z,-3.74
2023-02-26T05:48:22.662Z,-3.74
2023-02-26T05:50:50.359Z,-3.74
2023-02-26T05:53:17.328Z,-3.71
2023-02-26T05:55:43.902Z,-3.75
2023-02-26T05:58:10.423Z,-3.78
2023-02-26T06:00:37.003Z,-3.78
2023-02-26T06:03:03.536Z,-3.77
2023-02-26T06:05:31.324Z,-3.82
2023-02-26T06:07:57.772Z,-3.71
2023-02-26T06:10:24.400Z,-3.58
2023-02-26T06:12:50.910Z,-3.69
2023-02-26T06:17:58.935Z,-3.64
2023-02-26T06:20:25.455Z,-3.67
2023-02-26T06:22:51.920Z,-3.65
2023-02-26T06:25:18.391Z,-3.50
2023-02-26T06:27:44.835Z,-3.53
2023-02-26T06:30:12.155Z,-3.58
2023-02-26T06:32:38.772Z,-3.52
2023-02-26T06:51:10.101Z,-3.29
2023-02-26T06:53:36.663Z,-3.38
2023-02-26T06:56:03.729Z,-3.28
2023-02-26T06:58:30.666Z,-3.30
2023-02-26T07:00:57.122Z,-3.24
2023-02-26T07:03:23.652Z,-3.20
2023-02-26T07:05:50.635Z,-3.21
2023-02-26T07:08:17.102Z,-3.09
2023-02-26T07:10:44.014Z,-3.03
2023-02-26T07:13:10.460Z,-2.93
2023-02-26T07:18:12.234Z,-2.87
2023-02-26T07:20:38.756Z,-2.87
2023-02-26T07:23:05.495Z,-2.88
2023-02-26T07:25:31.966Z,-2.94
2023-02-26T07:27:59.897Z,-3.05
2023-02-26T07:30:26.976Z,-3.03
2023-02-26T07:32:53.495Z,-3.04
2023-02-26T07:35:20.459Z,-2.96
2023-02-26T07:37:46.951Z,-2.89
2023-02-26T07:40:13.910Z,-2.78
2023-02-26T07:42:40.732Z,-2.70
2023-02-26T07:45:08.249Z,-2.66
2023-02-26T07:47:35.450Z,-2.47
2023-02-26T07:50:02.025Z,-2.59
2023-02-26T07:52:28.951Z,-2.60
2023-02-26T07:54:55.444Z,-2.62
2023-02-26T07:57:22.018Z,-2.33
2023-02-26T07:59:48.567Z,-2.16
2023-02-26T08:02:15.120Z,-1.97
2023-02-26T08:04:42.698Z,-1.55
2023-02-26T08:07:09.366Z,-1.25
2023-02-26T08:09:36.137Z,-0.51
2023-02-26T08:12:03.543Z,-0.34
2023-02-26T08:14:30.005Z,-0.08
2023-02-26T08:16:56.709Z,0.26
2023-02-26T08:19:23.180Z,0.55
2023-02-26T08:21:50.820Z,0.53
2023-02-26T08:24:17.526Z,0.87
2023-02-26T08:26:45.329Z,0.97
2023-02-26T08:29:11.802Z,1.65
2023-02-26T08:31:38.495Z,1.43
2023-02-26T08:34:05.040Z,1.53
2023-02-26T08:36:32.447Z,1.63
2023-02-26T08:38:58.923Z,0.99
2023-02-26T08:41:27.688Z,1.33
2023-02-26T08:43:54.216Z,1.43
2023-02-26T08:46:20.831Z,1.05
2023-02-26T08:48:47.304Z,1.75
2023-02-26T08:51:14.031Z,2.06
2023-02-26T08:53:40.572Z,2.34
2023-02-26T08:56:07.894Z,2.52
2023-02-26T08:58:34.425Z,2.97
2023-02-26T09:01:00.879Z,3.27
2023-02-26T09:03:27.348Z,3.35
2023-02-26T09:05:53.765Z,3.10
2023-02-26T09:08:21.310Z,3.40
2023-02-26T09:10:48.163Z,3.25
2023-02-26T09:13:14.745Z,3.70
2023-02-26T09:15:41.648Z,4.01
2023-02-26T09:18:15.158Z,3.76
2023-02-26T09:20:45.368Z,4.11
2023-02-26T09:23:12.157Z,3.54
2023-02-26T09:25:38.844Z,3.81
2023-02-26T09:28:05.755Z,4.03
2023-02-26T09:30:32.738Z,4.17
2023-02-26T09:32:59.523Z,4.12
2023-02-26T09:35:26.084Z,4.14
2023-02-26T09:37:52.598Z,3.66
2023-02-26T09:40:29.398Z,4.06
2023-02-26T09:43:47.060Z,3.94
2023-02-26T09:46:28.470Z,4.11
2023-02-26T09:49:03.346Z,4.90
2023-02-26T09:51:33.481Z,4.85
2023-02-26T09:54:05.059Z,4.71
2023-02-26T09:56:36.986Z,4.26
2023-02-26T09:59:03.554Z,3.31
2023-02-26T10:01:43.793Z,2.97
2023-02-26T10:04:51.845Z,3.41
2023-02-26T10:07:45.221Z,1.77
2023-02-26T10:10:33.554Z,1.46
2023-02-26T10:13:00.618Z,1.47
2023-02-26T10:15:33.531Z,2.24
2023-02-26T10:18:21.479Z,2.23
2023-02-26T10:20:59.486Z,1.93
2023-02-26T10:23:38.495Z,2.32
2023-02-26T10:26:11.144Z,2.95
2023-02-26T10:28:48.761Z,3.02
2023-02-26T10:31:38.809Z,3.28
2023-02-26T10:34:21.764Z,3.67
2023-02-26T10:37:14.064Z,4.23
2023-02-26T10:39:53.169Z,4.27
2023-02-26T10:42:37.705Z,4.05
2023-02-26T10:45:43.154Z,4.23
2023-02-26T10:48:47.368Z,3.81
2023-02-26T10:51:38.307Z,3.98
2023-02-26T10:54:11.243Z,3.52
2023-02-26T10:56:37.840Z,3.94
2023-02-26T10:59:04.419Z,4.03
2023-02-26T11:01:32.059Z,3.76
2023-02-26T11:04:05.786Z,3.55
2023-02-26T11:06:38.002Z,3.65
2023-02-26T11:09:14.350Z,3.93
2023-02-26T11:12:02.114Z,3.98
2023-02-26T11:14:30.814Z,3.32
2023-02-26T11:17:00.623Z,2.85
2023-02-26T11:19:33.071Z,3.01
2023-02-26T11:22:02.212Z,3.15
2023-02-26T11:24:40.407Z,3.58
2023-02-26T11:27:13.504Z,3.87
2023-02-26T11:29:47.661Z,3.71
2023-02-26T11:32:19.084Z,3.07
2023-02-26T11:34:51.236Z,2.63
2023-02-26T11:37:28.867Z,3.38
2023-02-26T11:40:05.211Z,3.05
2023-02-26T11:42:38.003Z,2.72
2023-02-26T11:45:06.313Z,2.56
2023-02-26T11:47:34.707Z,2.14
2023-02-26T11:50:05.593Z,1.84
2023-02-26T11:52:41.536Z,1.51
2023-02-26T11:55:21.904Z,1.52
2023-02-26T11:57:54.756Z,1.17
2023-02-26T12:00:31.743Z,1.41
2023-02-26T12:03:09.036Z,1.82
2023-02-26T12:05:36.581Z,1.62
2023-02-26T12:08:13.215Z,2.58
2023-02-26T12:10:55.095Z,3.45
2023-02-26T12:13:30.462Z,2.74
2023-02-26T12:16:06.955Z,1.95
2023-02-26T12:18:51.466Z,1.37
2023-02-26T12:21:42.018Z,0.82
2023-02-26T12:24:17.451Z,0.63
2023-02-26T12:27:02.504Z,0.30
2023-02-26T12:29:51.809Z,0.26
2023-02-26T12:32:28.954Z,2.49
2023-02-26T12:35:07.541Z,4.58
2023-02-26T12:37:40.539Z,5.69
2023-02-26T12:40:17.648Z,5.61
2023-02-26T12:42:44.115Z,5.32
2023-02-26T12:45:10.892Z,4.96
2023-02-26T12:48:16.427Z,3.23
2023-02-26T12:51:00.597Z,1.98
2023-02-26T12:53:35.796Z,1.36
2023-02-26T12:56:23.959Z,0.75
2023-02-26T12:58:58.506Z,0.74
2023-02-26T13:01:59.541Z,0.80
2023-02-26T13:04:45.211Z,0.52
2023-02-26T13:07:20.145Z,1.04
2023-02-26T13:09:59.126Z,0.73
2023-02-26T13:12:42.520Z,0.85
2023-02-26T13:15:36.964Z,2.93
2023-02-26T13:18:26.978Z,3.99
2023-02-26T13:21:04.453Z,2.90
2023-02-26T13:23:41.275Z,2.18
2023-02-26T13:26:11.537Z,1.54
2023-02-26T13:28:44.561Z,1.19
2023-02-26T13:31:27.254Z,0.67
2023-02-26T13:33:56.469Z,0.22
2023-02-26T13:36:25.552Z,0.18
2023-02-26T13:39:07.123Z,0.14
2023-02-26T13:41:50.105Z,-0.02
2023-02-26T13:44:28.626Z,-0.06
2023-02-26T13:47:04.084Z,-0.08
2023-02-26T13:49:46.124Z,-0.11
2023-02-26T13:52:49.944Z,0.10
2023-02-26T13:55:38.364Z,0.36
2023-02-26T13:58:23.895Z,0.62
2023-02-26T14:01:19.252Z,0.75
2023-02-26T14:03:52.890Z,0.60
2023-02-26T14:06:24.575Z,0.48
2023-02-26T14:08:55.097Z,0.61
2023-02-26T14:11:38.224Z,0.58
2023-02-26T14:14:16.919Z,0.40
2023-02-26T14:16:45.643Z,0.19
2023-02-26T14:19:36.319Z,0.04
2023-02-26T14:22:21.123Z,0.15
2023-02-26T14:25:05.146Z,0.15
2023-02-26T14:27:38.124Z,0.18
2023-02-26T14:30:10.516Z,0.17
2023-02-26T14:32:58.637Z,0.10
2023-02-26T14:35:31.898Z,0.13
2023-02-26T14:38:13.841Z,-0.04
2023-02-26T14:40:48.920Z,0.04
2023-02-26T14:43:36.308Z,0.13
2023-02-26T14:46:05.056Z,0.11
2023-02-26T14:48:32.987Z,0.18
2023-02-26T14:51:02.316Z,0.28
2023-02-26T14:53:46.768Z,0.05
2023-02-26T14:56:31.318Z,-0.02
2023-02-26T14:59:36.034Z,-0.06
2023-02-26T15:02:24.917Z,-0.19
2023-02-26T15:05:14.914Z,-0.14
2023-02-26T15:07:56.004Z,-0.31
2023-02-26T15:10:37.362Z,-0.40
2023-02-26T15:13:31.593Z,-0.50
2023-02-26T15:16:26.523Z,-0.44
2023-02-26T15:18:55.595Z,-0.51
2023-02-26T15:21:54.018Z,-0.61
2023-02-26T15:24:20.586Z,-0.63
2023-02-26T15:26:51.306Z,-0.83
2023-02-26T15:29:20.941Z,-0.76
2023-02-26T15:31:54.241Z,-0.73
2023-02-26T15:34:21.560Z,-0.75
2023-02-26T15:36:53.265Z,-0.76
2023-02-26T15:39:23.360Z,-0.62
2023-02-26T15:41:52.202Z,-0.55
2023-02-26T15:44:26.908Z,-0.53
2023-02-26T15:47:00.214Z,-0.40
2023-02-26T15:49:31.585Z,-0.43
2023-02-26T15:52:00.626Z,-0.46
2023-02-26T15:54:51.412Z,-0.50
2023-02-26T15:57:19.999Z,-0.56
2023-02-26T15:59:50.337Z,-0.60
2023-02-26T16:02:21.836Z,-0.57
2023-02-26T16:04:48.267Z,-0.60
2023-02-26T16:07:15.140Z,-0.66
2023-02-26T16:09:51.391Z,-0.69
2023-02-26T16:12:24.464Z,-0.74
2023-02-26T16:15:01.579Z,-0.81
2023-02-26T16:17:32.927Z,-0.86
2023-02-26T16:20:05.051Z,-0.95
2023-02-26T16:22:42.025Z,-0.97
2023-02-26T16:25:28.759Z,-1.11
2023-02-26T16:28:02.456Z,-1.23
2023-02-26T16:30:39.363Z,-1.16
2023-02-26T16:33:12.318Z,-1.23
2023-02-26T16:35:43.650Z,-1.27
2023-02-26T16:38:32.515Z,-1.31
2023-02-26T16:41:05.753Z,-1.28
2023-02-26T16:43:50.257Z,-1.35
2023-02-26T16:46:42.470Z,-1.30
2023-02-26T16:49:29.287Z,-1.34
2023-02-26T16:51:57.538Z,-1.30
2023-02-26T16:54:46.316Z,-1.37
2023-02-26T16:57:37.326Z,-1.41
2023-02-26T17:00:09.570Z,-1.47
2023-02-26T17:02:37.810Z,-1.47
2023-02-26T17:05:31.609Z,-1.49
2023-02-26T17:08:09.653Z,-1.56
2023-02-26T17:10:45.098Z,-1.62
2023-02-26T17:13:18.406Z,-1.63
2023-02-26T17:15:47.043Z,-1.68
2023-02-26T17:18:14.024Z,-1.69
2023-02-26T17:20:40.710Z,-1.72
2023-02-26T17:23:11.752Z,-1.73
2023-02-26T17:25:42.396Z,-1.71
2023-02-26T17:28:12.314Z,-1.70
2023-02-26T17:30:39.071Z,-1.70
2023-02-26T17:33:07.803Z,-1.75
2023-02-26T17:35:34.445Z,-1.75
2023-02-26T17:38:01.159Z,-1.74
2023-02-26T17:40:31.695Z,-1.80
2023-02-26T17:42:59.957Z,-1.75
2023-02-26T17:45:26.526Z,-1.78
2023-02-26T17:47:53.058Z,-1.78
2023-02-26T17:50:26.660Z,-1.77
2023-02-26T17:52:53.142Z,-1.69
2023-02-26T17:55:19.646Z,-1.70
2023-02-26T17:57:46.604Z,-1.70
2023-02-26T18:00:16.275Z,-1.77
2023-02-26T18:02:43.098Z,-1.84
2023-02-26T18:05:10.030Z,-1.89
2023-02-26T18:07:37.575Z,-1.87
2023-02-26T18:10:04.887Z,-1.97
2023-02-26T18:12:31.383Z,-2.00
2023-02-26T18:14:57.872Z,-2.02
2023-02-26T18:17:27.786Z,-2.02
2023-02-26T18:19:54.466Z,-2.16
2023-02-26T18:22:25.201Z,-2.13
2023-02-26T18:24:52.493Z,-2.10
2023-02-26T18:27:21.528Z,-2.15
2023-02-26T18:29:48.012Z,-2.21
2023-02-26T18:32:19.609Z,-2.26
2023-02-26T18:34:46.259Z,-2.25
2023-02-26T18:37:15.874Z,-2.38
2023-02-26T18:39:42.789Z,-2.35
2023-02-26T18:42:24.399Z,-2.31
2023-02-26T18:44:51.352Z,-2.34
2023-02-26T18:47:18.978Z,-2.38
2023-02-26T18:49:46.178Z,-2.37
2023-02-26T18:52:13.261Z,-2.45
2023-02-26T18:54:40.229Z,-2.44
2023-02-26T18:57:07.596Z,-2.52
2023-02-26T18:59:34.655Z,-2.62
2023-02-26T19:02:03.069Z,-2.55
2023-02-26T19:04:30.623Z,-2.55
2023-02-26T19:06:57.182Z,-2.62
2023-02-26T19:09:23.842Z,-2.52
2023-02-26T19:11:50.289Z,-2.60
2023-02-26T19:14:16.804Z,-2.64
2023-02-26T19:16:43.727Z,-2.68
2023-02-26T19:19:12.618Z,-2.66
2023-02-26T19:21:40.268Z,-2.64
2023-02-26T19:24:12.067Z,-2.70
2023-02-26T19:26:39.068Z,-2.78
2023-02-26T19:29:07.817Z,-2.74
2023-02-26T19:31:36.454Z,-2.82
2023-02-26T19:34:04.300Z,-2.80
2023-02-26T19:36:33.503Z,-2.83
2023-02-26T19:39:01.717Z,-2.79
2023-02-26T19:41:28.785Z,-2.78
2023-02-26T19:43:55.747Z,-2.88
2023-02-26T19:46:23.168Z,-2.87
2023-02-26T19:48:50.187Z,-2.87
2023-02-26T19:51:17.229Z,-2.90
2023-02-26T19:53:43.758Z,-2.86
2023-02-26T19:56:10.700Z,-2.90
2023-02-26T19:58:37.190Z,-2.93
2023-02-26T20:01:05.286Z,-2.99
2023-02-26T20:03:32.073Z,-3.00
2023-02-26T20:05:59.110Z,-2.96
2023-02-26T20:08:29.357Z,-2.99
2023-02-26T20:10:58.141Z,-2.95
2023-02-26T20:13:29.738Z,-2.99
2023-02-26T20:16:00.601Z,-3.04
2023-02-26T20:18:30.819Z,-3.12
2023-02-26T20:20:58.900Z,-3.09
2023-02-26T20:23:26.086Z,-3.09
2023-02-26T20:25:56.973Z,-3.04
2023-02-26T20:28:24.904Z,-3.09
2023-02-26T20:30:52.315Z,-3.03
2023-02-26T20:33:19.422Z,-3.11
2023-02-26T20:35:46.037Z,-3.11
2023-02-26T20:38:17.268Z,-3.12
2023-02-26T20:40:43.968Z,-3.17
2023-02-26T20:43:10.874Z,-3.19
2023-02-26T20:45:38.732Z,-3.20
2023-02-26T20:48:07.119Z,-3.19
2023-02-26T20:50:34.863Z,-3.21
2023-02-26T20:53:01.724Z,-3.21
2023-02-26T20:55:28.275Z,-3.25
2023-02-26T20:57:55.259Z,-3.21
2023-02-26T21:00:22.173Z,-3.22
2023-02-26T21:02:49.084Z,-3.30
2023-02-26T21:05:16.212Z,-3.29
2023-02-26T21:07:43.224Z,-3.32
2023-02-26T21:10:12.281Z,-3.33
2023-02-26T21:12:38.863Z,-3.36
2023-02-26T21:15:06.953Z,-3.42
2023-02-26T21:17:33.403Z,-3.43
2023-02-26T21:19:59.814Z,-3.45
2023-02-26T21:22:26.297Z,-3.43
2023-02-26T21:24:52.718Z,-3.41
2023-02-26T21:27:19.161Z,-3.37
2023-02-26T21:29:45.636Z,-3.43
2023-02-26T21:32:12.197Z,-3.42
2023-02-26T21:34:38.969Z,-3.36
2023-02-26T21:37:08.579Z,-3.36
2023-02-26T21:39:35.988Z,-3.25
2023-02-26T21:42:03.796Z,-3.23
2023-02-26T21:44:32.729Z,-3.26
2023-02-26T21:46:59.428Z,-3.17
2023-02-26T21:49:27.317Z,-3.18
2023-02-26T21:51:53.872Z,-3.22
2023-02-26T21:54:20.482Z,-3.16
2023-02-26T21:56:47.162Z,-3.17
2023-02-26T21:59:14.026Z,-3.25
2023-02-26T22:01:40.789Z,-3.24
2023-02-26T22:04:07.976Z,-3.17
2023-02-26T22:06:34.631Z,-3.22
2023-02-26T22:09:01.388Z,-3.29
2023-02-26T22:11:28.149Z,-3.36
2023-02-26T22:13:54.907Z,-3.31
2023-02-26T22:16:21.368Z,-3.32
2023-02-26T22:18:47.984Z,-3.33
2023-02-26T22:21:14.656Z,-3.43
2023-02-26T22:23:41.337Z,-3.45
2023-02-26T22:26:07.830Z,-3.45
2023-02-26T22:28:34.318Z,-3.49
2023-02-26T22:31:01.519Z,-3.59
2023-02-26T22:33:28.127Z,-3.54
2023-02-26T22:35:58.753Z,-3.50
2023-02-26T22:38:25.700Z,-3.54
2023-02-26T22:40:52.976Z,-3.60
2023-02-26T22:43:19.991Z,-3.62
2023-02-26T22:45:46.462Z,-3.66
2023-02-26T22:48:13.011Z,-3.65
2023-02-26T22:50:39.654Z,-3.66
2023-02-26T22:53:06.967Z,-3.72
2023-02-26T22:55:33.487Z,-3.74
2023-02-26T22:58:00.634Z,-3.79
